createdAt,value
2017-12-25T07:25:09.369Z,6.10
2017-12-25T07:27:36.968Z,6.10
2017-12-25T07:30:04.559Z,6.10
2017-12-25T07:32:32.392Z,6.10
2017-12-25T07:34:59.988Z,6.10
2017-12-25T07:37:27.585Z,6.10
2017-12-25T07:39:55.945Z,6.10
2017-12-25T07:42:23.529Z,6.10
2017-12-25T07:44:51.875Z,6.10
2017-12-25T07:47:19.468Z,6.10
2017-12-25T07:49:47.883Z,6.10
2017-12-25T07:52:15.473Z,6.10
2017-12-25T07:54:43.057Z,6.10
2017-12-25T07:57:11.420Z,6.10
2017-12-25T07:59:39.016Z,6.10
2017-12-25T08:02:06.604Z,6.10
2017-12-25T08:04:34.228Z,6.10
2017-12-25T08:07:01.813Z,6.10
2017-12-25T08:09:29.444Z,6.10
2017-12-25T08:11:57.892Z,6.10
2017-12-25T08:14:25.524Z,6.00
2017-12-25T08:16:53.225Z,6.10
2017-12-25T08:19:20.876Z,6.10
2017-12-25T08:21:48.548Z,6.10
2017-12-25T08:24:16.457Z,6.00
2017-12-25T08:26:44.059Z,6.00
2017-12-25T08:29:11.644Z,6.00
2017-12-25T08:31:39.236Z,6.00
2017-12-25T08:34:07.072Z,6.00
2017-12-25T08:36:35.432Z,6.10
2017-12-25T08:39:03.056Z,6.00
2017-12-25T08:41:30.654Z,6.10
2017-12-25T08:43:58.244Z,6.10
2017-12-25T08:46:25.879Z,6.10
2017-12-25T08:49:00.896Z,6.20
2017-12-25T08:51:28.502Z,6.20
2017-12-25T08:53:56.132Z,6.30
2017-12-25T08:56:24.505Z,6.20
2017-12-25T08:58:52.089Z,6.20
2017-12-25T09:01:19.745Z,6.20
2017-12-25T09:03:47.344Z,6.20
2017-12-25T09:06:14.939Z,6.20
2017-12-25T09:08:42.572Z,6.20
2017-12-25T09:11:10.169Z,6.20
2017-12-25T09:13:38.527Z,6.10
2017-12-25T09:16:07.116Z,6.10
2017-12-25T09:18:34.723Z,6.10
2017-12-25T09:21:02.308Z,6.10
2017-12-25T09:23:29.905Z,6.10
2017-12-25T09:25:58.368Z,6.10
2017-12-25T09:28:25.956Z,6.10
2017-12-25T09:30:54.423Z,6.20
2017-12-25T09:33:23.676Z,6.20
2017-12-25T09:35:51.271Z,6.20
2017-12-25T09:38:18.857Z,6.20
2017-12-25T09:40:47.297Z,6.20
2017-12-25T09:43:14.879Z,6.20
2017-12-25T09:45:46.789Z,6.20
2017-12-25T09:48:19.508Z,6.30
2017-12-25T09:50:47.100Z,6.30
2017-12-25T09:53:14.700Z,6.30
2017-12-25T09:55:42.285Z,6.30
2017-12-25T09:58:10.206Z,6.20
2017-12-25T10:00:37.800Z,6.20
2017-12-25T10:03:05.437Z,6.20
2017-12-25T10:05:33.024Z,6.20
2017-12-25T10:08:00.632Z,6.10
2017-12-25T10:10:28.224Z,6.10
2017-12-25T10:12:55.803Z,6.10
2017-12-25T10:15:23.392Z,6.10
2017-12-25T10:17:51.981Z,6.00
2017-12-25T10:20:19.632Z,6.00
2017-12-25T10:22:47.216Z,6.10
2017-12-25T10:25:14.804Z,6.10
2017-12-25T10:27:42.391Z,6.10
2017-12-25T10:30:09.977Z,6.00
2017-12-25T10:32:38.332Z,6.10
2017-12-25T10:35:05.968Z,6.00
2017-12-25T10:37:33.555Z,6.10
2017-12-25T10:40:02.760Z,6.10
2017-12-25T10:42:30.380Z,6.10
2017-12-25T10:44:57.981Z,6.10
2017-12-25T10:47:26.345Z,6.10
2017-12-25T10:49:53.944Z,6.10
2017-12-25T10:52:21.532Z,6.10
2017-12-25T10:54:49.144Z,6.10
2017-12-25T10:57:16.731Z,6.10
2017-12-25T10:59:44.320Z,6.10
2017-12-25T11:02:28.681Z,6.10
2017-12-25T11:04:56.273Z,6.10
2017-12-25T11:07:28.836Z,6.10
2017-12-25T11:09:59.551Z,6.10
2017-12-25T11:15:12.653Z,6.10
2017-12-25T11:17:40.304Z,6.10
2017-12-25T11:20:09.962Z,6.10
2017-12-25T11:22:37.612Z,6.10
2017-12-25T11:25:05.287Z,6.00
2017-12-25T11:27:33.827Z,6.00
2017-12-25T11:30:02.746Z,6.00
2017-12-25T11:32:30.388Z,6.00
2017-12-25T11:34:58.017Z,6.00
2017-12-25T11:37:25.617Z,5.90
2017-12-25T11:39:56.705Z,5.90
2017-12-25T11:42:25.065Z,6.00
2017-12-25T11:44:52.657Z,6.00
2017-12-25T11:47:24.076Z,5.90
2017-12-25T11:49:51.673Z,5.90
2017-12-25T11:52:19.274Z,5.90
2017-12-25T11:54:46.883Z,5.80
2017-12-25T11:57:14.528Z,5.80
2017-12-25T11:59:43.044Z,5.70
2017-12-25T12:02:10.786Z,5.70
2017-12-25T12:04:38.388Z,5.70
2017-12-25T12:07:05.985Z,5.70
2017-12-25T12:09:33.712Z,5.80
2017-12-25T12:12:01.332Z,5.80
2017-12-25T12:14:28.993Z,5.80
2017-12-25T12:16:56.592Z,5.80
2017-12-25T12:19:27.749Z,5.80
2017-12-25T12:21:55.352Z,5.80
2017-12-25T12:24:22.968Z,5.80
2017-12-25T12:26:50.573Z,5.80
2017-12-25T12:29:18.184Z,5.80
2017-12-25T12:31:45.785Z,5.80
2017-12-25T12:34:14.389Z,5.70
2017-12-25T12:36:42.062Z,5.70
2017-12-25T12:39:09.713Z,5.70
2017-12-25T12:41:37.313Z,5.70
2017-12-25T12:44:04.907Z,5.60
2017-12-25T12:46:33.273Z,5.60
2017-12-25T12:49:00.872Z,5.50
2017-12-25T12:51:28.470Z,5.60
2017-12-25T12:53:56.060Z,5.50
2017-12-25T12:56:23.696Z,5.50
2017-12-25T12:58:51.296Z,5.50
2017-12-25T13:01:18.892Z,5.50
2017-12-25T13:03:56.528Z,5.50
2017-12-25T13:06:24.136Z,5.50
2017-12-25T13:08:51.736Z,5.50
2017-12-25T13:11:19.340Z,5.50
2017-12-25T13:13:46.948Z,5.50
2017-12-25T13:16:15.714Z,5.40
2017-12-25T13:19:01.372Z,5.30
2017-12-25T13:21:31.384Z,5.30
2017-12-25T13:23:59.528Z,5.30
2017-12-25T13:26:27.132Z,5.30
2017-12-25T13:28:54.729Z,5.30
2017-12-25T13:31:22.317Z,5.30
2017-12-25T13:33:49.924Z,5.30
2017-12-25T13:36:17.844Z,5.20
2017-12-25T13:38:46.411Z,5.20
2017-12-25T13:41:14.976Z,5.20
2017-12-25T13:43:42.620Z,5.20
2017-12-25T13:46:10.216Z,5.20
2017-12-25T13:48:38.889Z,5.10
2017-12-25T13:51:06.857Z,5.10
2017-12-25T13:53:34.660Z,5.10
2017-12-25T13:56:04.407Z,5.10
2017-12-25T13:58:32.092Z,5.10
2017-12-25T14:01:00.196Z,5.10
2017-12-25T14:03:28.105Z,5.00
2017-12-25T14:05:55.769Z,5.00
2017-12-25T14:08:23.777Z,5.00
2017-12-25T14:10:51.400Z,5.00
2017-12-25T14:13:19.228Z,4.90
2017-12-25T14:15:47.429Z,4.90
2017-12-25T14:18:15.368Z,4.80
2017-12-25T14:20:42.959Z,4.80
2017-12-25T14:23:11.362Z,4.80
2017-12-25T14:25:39.257Z,4.70
2017-12-25T14:28:06.880Z,4.70
2017-12-25T14:30:34.520Z,4.70
2017-12-25T14:33:02.304Z,4.80
2017-12-25T14:35:30.885Z,4.80
2017-12-25T14:38:00.932Z,4.80
2017-12-25T14:40:28.567Z,4.80
2017-12-25T14:42:56.548Z,4.80
2017-12-25T14:45:24.192Z,4.80
2017-12-25T14:47:57.281Z,4.80
2017-12-25T14:50:24.885Z,4.80
2017-12-25T14:52:54.609Z,4.70
2017-12-25T14:55:22.896Z,4.70
2017-12-25T14:57:51.712Z,4.60
2017-12-25T15:00:19.341Z,4.60
2017-12-25T15:02:46.946Z,4.60
2017-12-25T15:05:15.368Z,4.50
2017-12-25T15:07:43.040Z,4.50
2017-12-25T15:10:12.639Z,4.50
2017-12-25T15:12:40.248Z,4.40
2017-12-25T15:15:07.845Z,4.40
2017-12-25T15:17:35.479Z,4.30
2017-12-25T15:20:07.023Z,4.30
2017-12-25T15:22:37.348Z,4.30
2017-12-25T15:25:05.192Z,4.30
2017-12-25T15:27:32.980Z,4.20
2017-12-25T15:30:01.585Z,4.20
2017-12-25T15:32:32.165Z,4.10
2017-12-25T15:34:59.921Z,4.00
2017-12-25T15:37:28.653Z,4.00
2017-12-25T15:39:57.060Z,4.00
2017-12-25T15:42:26.183Z,4.00
2017-12-25T15:44:54.024Z,4.00
2017-12-25T15:47:22.664Z,4.00
2017-12-25T15:49:51.428Z,4.00
2017-12-25T15:52:19.891Z,4.00
2017-12-25T15:54:56.092Z,4.00
2017-12-25T15:57:25.585Z,4.00
2017-12-25T15:59:55.908Z,4.00
2017-12-25T16:02:24.404Z,4.00
2017-12-25T16:04:54.670Z,4.00
2017-12-25T16:07:30.506Z,3.90
2017-12-25T16:09:58.743Z,3.90
2017-12-25T16:12:27.021Z,3.90
2017-12-25T16:14:55.250Z,3.80
2017-12-25T16:17:23.478Z,3.80
2017-12-25T16:19:51.801Z,3.80
2017-12-25T16:22:20.026Z,3.80
2017-12-25T16:24:48.240Z,3.80
2017-12-25T16:27:20.342Z,3.70
2017-12-25T16:29:48.580Z,3.70
2017-12-25T16:32:16.868Z,3.70
2017-12-25T16:34:45.141Z,3.70
2017-12-25T16:37:13.405Z,3.60
2017-12-25T16:39:41.591Z,3.60
2017-12-25T16:42:09.933Z,3.60
2017-12-25T16:44:38.177Z,3.50
2017-12-25T16:47:06.513Z,3.50
2017-12-25T16:49:34.770Z,3.40
2017-12-25T16:52:03.005Z,3.40
2017-12-25T16:54:31.222Z,3.40
2017-12-25T16:56:59.476Z,3.30
2017-12-25T16:59:27.352Z,3.30
2017-12-25T17:01:55.261Z,3.30
2017-12-25T17:04:22.986Z,3.20
2017-12-25T17:06:51.205Z,3.20
2017-12-25T17:09:19.490Z,3.20
2017-12-25T17:11:47.697Z,3.20
2017-12-25T17:14:16.722Z,3.20
2017-12-25T17:16:45.044Z,3.10
2017-12-25T17:19:23.745Z,3.10
2017-12-25T17:21:54.246Z,3.10
2017-12-25T17:24:22.574Z,3.10
2017-12-25T17:32:45.477Z,3.00
2017-12-25T17:35:15.293Z,3.10
2017-12-25T17:37:42.935Z,3.10
2017-12-25T17:40:10.599Z,3.10
2017-12-25T17:42:38.256Z,3.00
2017-12-25T17:45:05.871Z,3.10
2017-12-25T17:47:33.492Z,3.00
2017-12-25T17:50:01.093Z,3.00
2017-12-25T17:52:28.692Z,3.00
2017-12-25T17:54:56.288Z,3.00
2017-12-25T17:57:23.889Z,2.90
2017-12-25T17:59:51.680Z,2.90
2017-12-25T18:02:19.367Z,2.90
2017-12-25T18:04:46.989Z,2.90
2017-12-25T18:07:15.372Z,2.90
2017-12-25T18:09:43.141Z,2.80
2017-12-25T18:12:10.765Z,2.80
2017-12-25T18:14:38.428Z,2.80
2017-12-25T18:17:06.031Z,2.80
2017-12-25T18:19:33.631Z,2.70
2017-12-25T18:22:01.250Z,2.70
2017-12-25T18:24:28.857Z,2.70
2017-12-25T18:26:56.547Z,2.70
2017-12-25T18:29:24.996Z,2.70
2017-12-25T18:31:52.653Z,2.70
2017-12-25T18:34:20.344Z,2.70
2017-12-25T18:36:48.098Z,2.70
2017-12-25T18:39:15.804Z,2.60
2017-12-25T18:41:43.491Z,2.70
2017-12-25T18:44:12.959Z,2.60
2017-12-25T18:46:41.421Z,2.60
2017-12-25T18:49:09.085Z,2.50
2017-12-25T18:51:37.536Z,2.50
2017-12-25T18:54:05.282Z,2.50
2017-12-25T18:56:33.009Z,2.50
2017-12-25T18:59:00.730Z,2.50
2017-12-25T19:01:28.419Z,2.50
2017-12-25T19:03:56.987Z,2.40
2017-12-25T19:06:24.730Z,2.40
2017-12-25T19:08:52.439Z,2.40
2017-12-25T19:11:21.019Z,2.40
2017-12-25T19:13:49.490Z,2.30
2017-12-25T19:16:17.166Z,2.30
2017-12-25T19:18:45.626Z,2.30
2017-12-25T19:21:13.319Z,2.30
2017-12-25T19:23:41.708Z,2.30
2017-12-25T19:26:09.474Z,2.30
2017-12-25T19:28:37.134Z,2.30
2017-12-25T19:31:04.883Z,2.30
2017-12-25T19:33:33.321Z,2.30
2017-12-25T19:36:01.192Z,2.30
2017-12-25T19:38:28.916Z,2.30
2017-12-25T19:40:56.665Z,2.30
2017-12-25T19:43:25.189Z,2.30
2017-12-25T19:45:52.865Z,2.30
2017-12-25T19:48:20.529Z,2.30
2017-12-25T19:50:48.720Z,2.30
2017-12-25T19:53:16.465Z,2.20
2017-12-25T19:55:44.101Z,2.20
2017-12-25T19:58:11.764Z,2.20
2017-12-25T20:00:39.468Z,2.20
2017-12-25T20:03:07.190Z,2.20
2017-12-25T20:05:35.015Z,2.20
2017-12-25T20:08:03.415Z,2.20
2017-12-25T20:10:32.304Z,2.10
2017-12-25T20:13:00.011Z,2.20
2017-12-25T20:15:28.731Z,2.20
2017-12-25T20:17:57.315Z,2.10
2017-12-25T20:20:25.781Z,2.10
2017-12-25T20:22:53.429Z,2.10
2017-12-25T20:25:21.250Z,2.10
2017-12-25T20:27:48.965Z,2.10
2017-12-25T20:30:17.517Z,2.10
2017-12-25T20:32:45.192Z,2.10
2017-12-25T20:35:12.918Z,2.00
2017-12-25T20:37:40.603Z,2.00
2017-12-25T20:40:09.190Z,2.00
2017-12-25T20:42:36.872Z,2.00
2017-12-25T20:45:04.956Z,1.90
2017-12-25T20:47:32.623Z,2.00
2017-12-25T20:50:00.302Z,2.00
2017-12-25T20:52:27.957Z,2.00
2017-12-25T20:54:55.655Z,2.00
2017-12-25T20:57:23.394Z,2.00
2017-12-25T20:59:51.849Z,1.90
2017-12-25T21:02:19.477Z,1.90
2017-12-25T21:04:47.101Z,1.90
2017-12-25T21:07:15.560Z,1.90
2017-12-25T21:09:43.203Z,1.90
2017-12-25T21:12:10.984Z,2.00
2017-12-25T21:14:38.685Z,1.90
2017-12-25T21:17:07.255Z,1.90
2017-12-25T21:19:35.003Z,1.90
2017-12-25T21:22:03.469Z,1.90
2017-12-25T21:24:31.134Z,1.80
2017-12-25T21:26:58.830Z,1.80
2017-12-25T21:29:26.489Z,1.80
2017-12-25T21:31:54.238Z,1.80
2017-12-25T21:34:23.848Z,1.80
2017-12-25T21:36:52.280Z,1.80
2017-12-25T21:39:19.936Z,1.80
2017-12-25T21:41:47.656Z,1.80
2017-12-25T21:44:16.057Z,1.90
2017-12-25T21:46:43.727Z,1.90
2017-12-25T21:49:11.426Z,1.90
2017-12-25T21:51:39.065Z,1.90
2017-12-25T21:54:06.741Z,1.90
2017-12-25T21:56:34.430Z,2.00
2017-12-25T21:59:02.098Z,2.10
2017-12-25T22:01:31.967Z,2.20
2017-12-25T22:04:00.058Z,2.30
2017-12-25T22:06:28.875Z,2.30
2017-12-25T22:08:56.894Z,2.30
2017-12-25T22:11:25.605Z,2.20
2017-12-25T22:13:53.662Z,2.20
2017-12-25T22:16:21.674Z,2.20
2017-12-25T22:18:49.513Z,2.20
2017-12-25T22:21:17.634Z,2.20
2017-12-25T22:23:45.751Z,2.10
2017-12-25T22:26:13.855Z,2.10
2017-12-25T22:28:41.908Z,2.00
2017-12-25T22:31:10.202Z,2.00
2017-12-25T22:33:38.086Z,2.00
2017-12-25T22:36:05.971Z,1.90
2017-12-25T22:38:33.874Z,1.90
2017-12-25T22:41:01.684Z,1.80
2017-12-25T22:43:29.542Z,1.80
2017-12-25T22:45:57.605Z,1.70
2017-12-25T22:48:26.239Z,1.70
2017-12-25T22:50:54.195Z,1.60
2017-12-25T22:53:21.993Z,1.70
2017-12-25T22:55:49.845Z,1.60
2017-12-25T22:58:17.635Z,1.60
2017-12-25T23:00:45.461Z,1.50
2017-12-25T23:03:14.180Z,1.50
2017-12-25T23:05:42.909Z,1.50
2017-12-25T23:08:10.888Z,1.50
2017-12-25T23:10:39.004Z,1.50
2017-12-25T23:13:06.990Z,1.60
2017-12-25T23:15:35.064Z,1.70
2017-12-25T23:18:03.208Z,1.70
2017-12-25T23:20:32.125Z,1.80
2017-12-25T23:23:00.094Z,1.80
2017-12-25T23:25:28.805Z,1.80
2017-12-25T23:27:56.851Z,1.80
2017-12-25T23:30:24.887Z,1.80
2017-12-25T23:32:52.841Z,1.80
2017-12-25T23:35:21.478Z,1.80
2017-12-25T23:37:49.596Z,1.80
2017-12-25T23:40:17.605Z,1.90
2017-12-25T23:42:45.380Z,1.90
2017-12-25T23:45:13.148Z,1.80
2017-12-25T23:47:41.002Z,1.90
2017-12-25T23:50:08.957Z,1.90
2017-12-25T23:52:37.052Z,1.90
2017-12-25T23:55:05.002Z,1.90
2017-12-25T23:57:33.818Z,1.90
